Time;durP1;ratioP1;P1;durP2;ratioP2;P2;SDS_P1;SDS_P2;PMS_P1;PMS_P2;Temp;Humidity;BMP_temperature;BMP_pressure;BME280_temperature;BME280_humidity;BME280_pressure;Samples;Min_cycle;Max_cycle;Signal;HPM_P1;HPM_P2
2022/03/03 00:00:15;;;;;;;58.65;36.53;;;;;;;10.75;57.87;101205.19;5012990;28;20050;-64
2022/03/03 00:02:44;;;;;;;59.47;36.80;;;;;;;10.83;57.76;101207.22;5013518;28;20042;-66
2022/03/03 00:05:12;;;;;;;63.40;36.35;;;;;;;10.84;57.81;101206.94;5012791;28;20042;-63
2022/03/03 00:07:40;;;;;;;56.88;35.40;;;;;;;10.84;57.80;101200.59;5030132;28;20053;-64
2022/03/03 00:10:09;;;;;;;60.30;37.28;;;;;;;10.70;58.18;101199.75;5014912;28;20512;-68
2022/03/03 00:12:37;;;;;;;66.65;36.03;;;;;;;10.69;58.48;101195.34;5012330;28;20520;-64
2022/03/03 00:15:05;;;;;;;58.45;36.75;;;;;;;10.44;59.08;101204.91;5015756;28;20057;-67
2022/03/03 00:17:33;;;;;;;57.63;36.63;;;;;;;10.67;58.71;101192.09;5012681;28;20053;-66
2022/03/03 00:20:01;;;;;;;58.80;37.25;;;;;;;10.37;59.37;101190.69;5027051;28;20062;-62
2022/03/03 00:22:28;;;;;;;57.08;35.47;;;;;;;10.22;60.14;101195.63;5014648;28;20412;-63
2022/03/03 00:24:55;;;;;;;67.28;37.65;;;;;;;10.53;59.41;101192.03;5014659;28;20041;-63
2022/03/03 00:27:23;;;;;;;62.05;36.30;;;;;;;10.57;59.04;101198.59;5012210;28;20060;-64
2022/03/03 00:29:52;;;;;;;62.38;37.17;;;;;;;10.70;58.95;101197.84;5008826;28;20668;-67
2022/03/03 00:32:20;;;;;;;63.25;37.30;;;;;;;10.72;58.87;101195.56;5016833;28;20056;-64
2022/03/03 00:34:47;;;;;;;55.47;37.50;;;;;;;10.60;59.38;101206.25;5015485;28;20053;-65
2022/03/03 00:37:17;;;;;;;58.72;37.28;;;;;;;10.68;58.98;101200.06;4997740;28;20054;-63
2022/03/03 00:39:44;;;;;;;62.05;37.33;;;;;;;10.83;58.75;101193.44;5014330;28;20128;-67
2022/03/03 00:42:12;;;;;;;56.70;36.60;;;;;;;10.90;58.28;101197.44;5017043;28;20409;-63
2022/03/03 00:44:39;;;;;;;55.33;36.80;;;;;;;10.85;58.48;101196.72;5016470;28;20045;-66
2022/03/03 00:47:07;;;;;;;56.33;36.33;;;;;;;10.85;58.44;101205.81;5018098;28;20057;-65
2022/03/03 00:49:35;;;;;;;58.45;37.28;;;;;;;10.96;58.11;101206.44;5015247;28;20523;-64
2022/03/03 00:52:02;;;;;;;58.35;36.72;;;;;;;10.78;58.52;101204.56;5032220;28;20065;-66
2022/03/03 00:54:30;;;;;;;62.25;38.55;;;;;;;10.67;58.85;101214.94;5015043;28;20041;-63
2022/03/03 00:56:57;;;;;;;61.65;38.63;;;;;;;10.78;58.84;101215.59;5014761;28;20062;-67
2022/03/03 00:59:24;;;;;;;59.88;39.10;;;;;;;10.71;58.93;101210.47;5015176;28;20054;-67
2022/03/03 01:01:52;;;;;;;64.50;41.17;;;;;;;10.49;59.60;101213.06;5013223;28;20054;-68
2022/03/03 01:04:21;;;;;;;64.80;41.42;;;;;;;10.67;59.41;101206.69;5022858;28;20471;-63
2022/03/03 01:06:49;;;;;;;64.05;40.35;;;;;;;10.71;59.17;101207.72;5004209;28;20045;-64
2022/03/03 01:09:16;;;;;;;69.32;40.47;;;;;;;10.78;58.80;101210.06;5017548;28;20089;-67
2022/03/03 01:11:44;;;;;;;69.45;41.50;;;;;;;10.62;59.42;101206.78;5017801;28;20050;-67
2022/03/03 01:14:11;;;;;;;57.67;39.35;;;;;;;10.77;58.97;101208.44;5017089;28;20049;-63
2022/03/03 01:16:38;;;;;;;64.22;39.35;;;;;;;10.75;58.96;101200.50;5012448;28;20050;-63
2022/03/03 01:19:06;;;;;;;57.85;38.05;;;;;;;10.71;59.08;101204.97;5020482;28;20042;-66
2022/03/03 01:21:34;;;;;;;61.35;37.72;;;;;;;10.77;58.95;101202.94;5011398;28;20516;-66
2022/03/03 01:24:02;;;;;;;62.10;37.55;;;;;;;10.74;59.17;101195.28;5034564;28;20053;-65
2022/03/03 01:26:30;;;;;;;58.60;38.28;;;;;;;10.89;58.91;101198.59;5015758;28;20049;-64
2022/03/03 01:28:57;;;;;;;65.22;38.72;;;;;;;10.84;58.77;101197.84;5004045;28;20058;-63
2022/03/03 01:31:24;;;;;;;58.65;38.10;;;;;;;10.80;59.45;101194.88;5016094;28;20624;-67
2022/03/03 01:33:52;;;;;;;59.40;35.70;;;;;;;10.90;59.35;101199.38;5016715;28;20069;-63
2022/03/03 01:36:19;;;;;;;60.33;35.60;;;;;;;10.74;59.88;101182.31;5002349;28;20050;-66
2022/03/03 01:38:47;;;;;;;54.22;34.47;;;;;;;10.83;59.85;101191.53;5016594;28;20054;-66
2022/03/03 01:41:14;;;;;;;57.63;34.95;;;;;;;10.91;59.79;101182.53;5003450;28;20069;-67
2022/03/03 01:43:41;;;;;;;56.78;34.42;;;;;;;10.92;60.02;101186.94;5013755;28;20050;-63
2022/03/03 01:46:09;;;;;;;56.38;33.50;;;;;;;11.18;59.21;101179.81;5016510;28;20409;-67
2022/03/03 01:48:36;;;;;;;58.13;35.35;;;;;;;11.05;59.46;101186.13;5007908;28;20498;-63
2022/03/03 01:51:03;;;;;;;52.40;33.42;;;;;;;11.08;59.66;101179.19;5012022;28;20445;-67
2022/03/03 01:53:31;;;;;;;52.42;32.63;;;;;;;11.09;60.11;101176.13;5015191;28;20501;-66
2022/03/03 01:55:58;;;;;;;54.10;32.38;;;;;;;11.01;60.83;101178.78;5016280;28;20050;-67
2022/03/03 01:58:26;;;;;;;48.72;30.73;;;;;;;11.10;61.02;101172.28;5014997;28;20421;-64
2022/03/03 02:00:53;;;;;;;48.17;29.40;;;;;;;11.13;61.40;101170.81;5012194;28;20560;-63
2022/03/03 02:03:21;;;;;;;49.33;29.17;;;;;;;10.93;62.60;101174.78;5001681;28;20439;-64
2022/03/03 02:05:49;;;;;;;49.17;30.02;;;;;;;10.93;62.45;101166.50;4995469;28;20053;-67
2022/03/03 02:08:16;;;;;;;58.17;30.00;;;;;;;11.04;62.01;101173.47;5012004;28;20046;-66
2022/03/03 02:10:44;;;;;;;46.47;29.45;;;;;;;10.96;62.47;101171.44;5011866;28;20544;-67
2022/03/03 02:13:11;;;;;;;46.08;28.67;;;;;;;10.94;62.73;101172.84;5016340;28;20054;-64
2022/03/03 02:15:39;;;;;;;46.03;28.02;;;;;;;11.03;62.66;101173.78;5012130;28;20045;-63
2022/03/03 02:18:06;;;;;;;48.55;30.45;;;;;;;10.89;63.37;101179.28;5007398;28;20057;-67
2022/03/03 02:20:34;;;;;;;50.08;29.27;;;;;;;11.18;62.34;101173.47;5018486;28;20056;-63
2022/03/03 02:23:01;;;;;;;45.88;28.95;;;;;;;11.10;62.60;101166.75;5022690;28;20053;-67
2022/03/03 02:25:28;;;;;;;49.28;29.45;;;;;;;11.08;62.23;101166.25;5004818;28;20065;-67
2022/03/03 02:27:56;;;;;;;52.50;31.50;;;;;;;11.12;62.11;101170.00;5015865;28;20509;-64
2022/03/03 02:30:23;;;;;;;47.10;29.83;;;;;;;11.13;62.34;101171.66;5011504;28;20054;-67
2022/03/03 02:32:50;;;;;;;47.47;29.75;;;;;;;11.21;61.99;101165.41;4998427;28;20482;-64
2022/03/03 02:35:18;;;;;;;44.53;28.60;;;;;;;10.93;63.48;101165.72;5006632;28;20418;-64
2022/03/03 02:37:46;;;;;;;52.17;29.13;;;;;;;11.06;62.89;101159.38;5006822;28;20054;-64
2022/03/03 02:40:21;;;;;;;46.92;29.20;;;;;;;11.12;62.98;101158.97;5001591;28;20050;-64
2022/03/03 02:42:50;;;;;;;48.50;28.52;;;;;;;11.08;63.16;101160.72;5010853;28;20054;-67
2022/03/03 02:45:18;;;;;;;48.80;28.23;;;;;;;11.13;63.16;101163.38;5012593;28;20056;-64
2022/03/03 02:47:46;;;;;;;50.17;28.42;;;;;;;11.15;63.88;101158.38;5015470;28;20056;-66
2022/03/03 02:50:15;;;;;;;49.42;27.65;;;;;;;11.24;63.07;101148.25;5013670;28;20078;-68
2022/03/03 02:52:43;;;;;;;47.60;28.13;;;;;;;11.11;63.72;101151.00;5014249;28;20529;-64
2022/03/03 02:55:12;;;;;;;46.13;28.08;;;;;;;11.13;64.20;101154.28;5004156;28;20046;-63
2022/03/03 02:57:54;;;;;;;48.05;26.92;;;;;;;11.09;64.79;101154.06;5023936;28;20050;-67
2022/03/03 03:00:27;;;;;;;52.97;27.52;;;;;;;11.11;65.16;101148.25;5008265;28;20085;-67
2022/03/03 03:02:55;;;;;;;57.17;29.25;;;;;;;11.11;64.37;101137.22;5015699;28;20050;-65
2022/03/03 03:05:25;;;;;;;46.83;29.23;;;;;;;11.02;64.55;101139.06;5012731;28;20057;-66
2022/03/03 03:07:53;;;;;;;46.92;28.15;;;;;;;11.18;63.86;101135.69;5015779;28;20049;-64
2022/03/03 03:10:20;;;;;;;49.92;29.38;;;;;;;11.11;63.88;101131.72;5005953;28;20050;-64
2022/03/03 03:12:47;;;;;;;47.30;28.85;;;;;;;10.93;64.39;101127.13;5005637;28;20046;-67
2022/03/03 03:15:16;;;;;;;46.60;29.30;;;;;;;10.84;64.53;101129.78;5012450;28;20046;-63
2022/03/03 03:17:43;;;;;;;52.00;29.63;;;;;;;10.96;64.29;101127.34;5015612;28;20058;-63
2022/03/03 03:20:11;;;;;;;47.13;27.77;;;;;;;10.93;64.71;101119.66;5005706;28;20046;-68
2022/03/03 03:22:38;;;;;;;47.75;29.88;;;;;;;10.98;64.59;101119.56;5000591;28;20054;-67
2022/03/03 03:25:08;;;;;;;45.42;28.67;;;;;;;11.02;64.62;101117.00;5012879;28;20054;-66
2022/03/03 03:27:40;;;;;;;53.10;30.98;;;;;;;10.91;64.79;101121.91;5014085;28;20084;-67
2022/03/03 03:30:09;;;;;;;48.50;28.15;;;;;;;10.86;65.23;101119.25;5008957;28;20421;-67
2022/03/03 03:32:37;;;;;;;52.97;29.15;;;;;;;10.86;65.58;101123.97;5008503;28;20378;-64
2022/03/03 03:35:05;;;;;;;46.55;27.77;;;;;;;10.95;65.12;101122.09;5009789;28;20057;-65
2022/03/03 03:37:33;;;;;;;45.65;27.95;;;;;;;10.93;65.45;101116.13;5013869;28;20057;-64
2022/03/03 03:40:00;;;;;;;48.80;28.52;;;;;;;10.81;65.79;101118.56;5001763;28;20062;-64
2022/03/03 03:42:27;;;;;;;45.90;27.23;;;;;;;10.86;65.68;101110.97;5001225;28;20054;-63
2022/03/03 03:44:55;;;;;;;45.42;28.67;;;;;;;10.63;66.53;101100.16;5023997;28;20412;-63
2022/03/03 03:47:22;;;;;;;43.67;27.85;;;;;;;10.43;67.76;101103.28;5009904;28;20050;-65
2022/03/03 03:49:49;;;;;;;52.28;28.92;;;;;;;10.60;67.24;101109.03;5006617;28;20054;-66
2022/03/03 03:52:17;;;;;;;48.65;26.65;;;;;;;10.71;67.05;101096.69;5014737;28;20050;-63
2022/03/03 03:54:44;;;;;;;49.63;28.27;;;;;;;10.64;67.35;101096.28;5015980;28;20061;-64
2022/03/03 03:57:12;;;;;;;49.47;28.25;;;;;;;10.63;67.40;101089.16;5012327;28;20061;-65
2022/03/03 03:59:39;;;;;;;48.70;27.60;;;;;;;10.62;67.29;101093.81;5011893;28;20053;-64
2022/03/03 04:02:06;;;;;;;43.63;28.00;;;;;;;10.93;66.39;101088.56;5013384;28;20528;-65
2022/03/03 04:04:34;;;;;;;49.53;28.42;;;;;;;10.80;66.78;101087.44;5018044;28;20054;-66
2022/03/03 04:07:01;;;;;;;42.83;27.40;;;;;;;10.99;66.36;101087.31;5018257;28;20130;-66
2022/03/03 04:09:28;;;;;;;47.83;27.83;;;;;;;10.67;67.27;101081.91;5005517;28;20050;-65
2022/03/03 04:11:56;;;;;;;47.75;27.70;;;;;;;10.75;67.58;101084.78;5005220;28;20057;-63
2022/03/03 04:14:23;;;;;;;47.45;27.70;;;;;;;10.79;67.53;101091.28;5005139;28;20057;-64
2022/03/03 04:16:51;;;;;;;45.13;27.08;;;;;;;10.78;67.62;101086.91;5018319;28;20395;-63
2022/03/03 04:19:19;;;;;;;43.67;26.60;;;;;;;10.83;67.65;101085.97;5011587;28;20509;-64
2022/03/03 04:21:46;;;;;;;46.35;27.67;;;;;;;10.58;68.50;101081.81;5017722;28;20053;-63
2022/03/03 04:24:13;;;;;;;44.50;26.98;;;;;;;10.82;68.02;101076.91;5013129;28;20042;-64
2022/03/03 04:26:41;;;;;;;44.95;27.55;;;;;;;10.91;67.69;101068.75;5018191;28;20050;-63
2022/03/03 04:29:08;;;;;;;39.63;26.13;;;;;;;10.72;68.81;101068.03;5016393;28;20046;-64
2022/03/03 04:31:36;;;;;;;44.35;26.13;;;;;;;10.63;69.41;101065.19;5006287;28;20054;-63
2022/03/03 04:34:03;;;;;;;54.83;27.60;;;;;;;10.74;69.65;101069.34;5011366;28;20069;-63
2022/03/03 04:36:31;;;;;;;47.38;27.38;;;;;;;10.65;69.88;101062.91;5017674;28;20053;-63
2022/03/03 04:38:58;;;;;;;42.75;26.27;;;;;;;10.73;69.42;101053.94;5017836;28;20489;-63
2022/03/03 04:41:25;;;;;;;45.65;26.25;;;;;;;10.69;69.98;101054.84;5008475;28;20054;-64
2022/03/03 04:43:53;;;;;;;43.17;25.88;;;;;;;10.77;70.12;101057.72;5014017;28;20058;-63
2022/03/03 04:46:20;;;;;;;41.22;24.85;;;;;;;10.85;69.89;101053.41;5008762;28;20045;-64
2022/03/03 04:48:48;;;;;;;46.95;25.45;;;;;;;10.78;70.11;101053.84;5017120;28;20061;-64
2022/03/03 04:51:15;;;;;;;45.70;25.90;;;;;;;10.69;70.85;101047.41;5012323;28;20065;-64
2022/03/03 04:53:42;;;;;;;47.72;25.08;;;;;;;10.59;71.29;101047.63;4991637;28;20058;-64
2022/03/03 04:56:10;;;;;;;41.92;25.45;;;;;;;10.76;70.95;101044.22;5017434;28;20053;-64
2022/03/03 04:58:40;;;;;;;48.53;26.05;;;;;;;10.68;70.86;101034.78;5013326;28;20042;-64
2022/03/03 05:01:07;;;;;;;41.28;26.08;;;;;;;10.78;70.57;101033.72;5016029;28;20065;-64
2022/03/03 05:03:35;;;;;;;44.47;26.75;;;;;;;10.77;70.80;101040.38;5015371;28;20695;-62
2022/03/03 05:06:02;;;;;;;41.15;26.00;;;;;;;10.84;70.74;101038.84;5016976;28;20607;-63
2022/03/03 05:08:29;;;;;;;42.65;25.17;;;;;;;10.74;71.20;101046.50;5006162;28;20070;-63
2022/03/03 05:10:57;;;;;;;46.88;26.25;;;;;;;10.83;70.70;101041.88;4999042;28;20072;-63
2022/03/03 05:13:24;;;;;;;46.35;27.50;;;;;;;10.81;70.79;101044.94;5017399;28;20075;-63
2022/03/03 05:15:51;;;;;;;46.95;26.42;;;;;;;10.81;71.10;101041.41;5012007;28;20065;-64
2022/03/03 05:18:18;;;;;;;43.17;26.45;;;;;;;10.91;70.64;101046.69;5009741;28;20058;-63
2022/03/03 05:20:46;;;;;;;46.30;26.98;;;;;;;10.80;71.09;101039.75;5004896;28;20513;-63
2022/03/03 05:23:13;;;;;;;43.22;25.17;;;;;;;10.70;71.33;101032.53;5006169;28;20058;-63
2022/03/03 05:25:41;;;;;;;41.25;26.33;;;;;;;10.87;71.20;101037.41;5013607;28;20058;-64
2022/03/03 05:28:08;;;;;;;39.15;25.48;;;;;;;10.87;71.39;101040.16;5008307;28;20050;-64
2022/03/03 05:30:37;;;;;;;42.58;26.33;;;;;;;10.59;72.61;101035.78;5012357;28;20062;-64
2022/03/03 05:33:07;;;;;;;41.78;26.85;;;;;;;10.56;73.52;101044.66;5014626;28;20057;-63
2022/03/03 05:35:34;;;;;;;44.72;25.77;;;;;;;10.76;72.96;101034.03;5003638;28;20041;-65
2022/03/03 05:38:01;;;;;;;39.97;25.15;;;;;;;10.78;72.96;101044.75;5016807;28;20050;-67
2022/03/03 05:40:30;;;;;;;46.20;26.63;;;;;;;10.51;74.25;101044.75;5016509;28;20050;-66
2022/03/03 05:42:57;;;;;;;48.20;27.33;;;;;;;10.57;73.92;101049.03;5016611;28;20382;-66
2022/03/03 05:45:25;;;;;;;36.75;25.88;;;;;;;10.53;74.18;101048.81;5016055;28;20053;-64
2022/03/03 05:47:52;;;;;;;41.83;27.13;;;;;;;10.62;73.97;101057.19;5013638;28;20521;-67
2022/03/03 05:50:20;;;;;;;44.10;26.40;;;;;;;10.78;72.67;101051.09;5015625;28;20085;-68
2022/03/03 05:52:48;;;;;;;40.75;26.42;;;;;;;10.77;72.83;101049.47;5009569;28;20061;-66
2022/03/03 05:55:15;;;;;;;48.47;27.98;;;;;;;10.78;73.03;101047.50;5016361;28;20420;-67
2022/03/03 05:57:48;;;;;;;40.92;25.45;;;;;;;10.69;73.08;101043.81;5016656;28;20049;-69
2022/03/03 06:00:17;;;;;;;42.75;26.70;;;;;;;10.63;73.90;101045.91;5002081;28;20061;-67
2022/03/03 06:02:51;;;;;;;48.08;26.58;;;;;;;10.76;73.47;101047.81;5015024;28;20061;-66
2022/03/03 06:05:21;;;;;;;43.00;25.52;;;;;;;10.79;73.54;101046.41;5011765;28;20066;-67
2022/03/03 06:07:52;;;;;;;46.88;27.35;;;;;;;10.82;73.46;101037.50;5007457;28;20052;-67
2022/03/03 06:10:24;;;;;;;43.13;26.98;;;;;;;10.62;74.17;101038.72;5014740;28;20054;-67
2022/03/03 06:13:03;;;;;;;53.95;27.00;;;;;;;10.72;74.45;101044.03;5015955;28;20054;-68
2022/03/03 06:15:30;;;;;;;44.25;26.27;;;;;;;10.72;74.08;101043.25;5004049;28;20061;-64
2022/03/03 06:17:57;;;;;;;49.75;26.40;;;;;;;10.72;74.44;101046.00;5000820;28;20046;-63
2022/03/03 06:20:27;;;;;;;46.55;26.67;;;;;;;10.55;75.07;101048.53;5008324;28;20046;-64
2022/03/03 06:22:55;;;;;;;45.42;26.77;;;;;;;10.56;75.40;101048.25;5013627;28;20433;-64
2022/03/03 06:25:22;;;;;;;48.17;26.83;;;;;;;10.68;75.05;101043.03;5006222;28;20073;-64
2022/03/03 06:27:49;;;;;;;39.85;26.60;;;;;;;10.66;74.99;101047.19;5007834;28;20057;-64
2022/03/03 06:30:17;;;;;;;53.80;26.83;;;;;;;10.66;74.95;101049.97;5013431;28;20050;-64
2022/03/03 06:32:44;;;;;;;46.20;26.73;;;;;;;10.81;74.68;101050.47;5013814;28;20050;-64
2022/03/03 06:35:11;;;;;;;43.47;26.27;;;;;;;10.49;75.25;101061.59;5032461;28;20050;-64
2022/03/03 06:37:39;;;;;;;44.58;27.20;;;;;;;10.70;75.16;101059.25;5015841;28;20481;-63
2022/03/03 06:40:07;;;;;;;45.72;26.73;;;;;;;10.70;74.89;101057.31;5013392;28;20057;-63
2022/03/03 06:42:35;;;;;;;47.65;27.52;;;;;;;10.72;74.92;101059.78;5009849;28;20069;-64
2022/03/03 06:45:03;;;;;;;43.72;27.27;;;;;;;10.68;75.08;101056.81;5011185;28;20053;-65
2022/03/03 06:47:30;;;;;;;44.78;28.40;;;;;;;10.75;75.14;101057.22;5011688;28;20049;-65
2022/03/03 06:49:57;;;;;;;49.92;27.10;;;;;;;10.84;75.02;101060.91;4996207;28;21484;-63
2022/03/03 06:52:26;;;;;;;47.72;26.80;;;;;;;10.95;74.66;101070.56;5017638;28;20050;-63
2022/03/03 06:54:54;;;;;;;47.50;26.08;;;;;;;11.12;73.98;101068.00;5016781;28;20417;-63
2022/03/03 06:57:22;;;;;;;43.33;26.50;;;;;;;11.01;75.17;101068.53;5017205;28;20046;-63
2022/03/03 06:59:52;;;;;;;48.83;26.92;;;;;;;11.00;75.53;101064.94;5019673;28;20414;-63
2022/03/03 07:02:20;;;;;;;49.53;27.70;;;;;;;10.95;75.99;101067.81;5015751;28;20064;-67
2022/03/03 07:04:48;;;;;;;55.70;28.52;;;;;;;10.86;76.39;101072.41;5013225;28;20050;-66
2022/03/03 07:07:16;;;;;;;52.35;28.48;;;;;;;10.78;76.61;101072.31;5015073;28;20053;-67
2022/03/03 07:09:44;;;;;;;47.88;28.85;;;;;;;10.81;76.77;101064.25;4996740;28;20057;-67
2022/03/03 07:12:12;;;;;;;49.97;28.58;;;;;;;10.89;76.61;101071.00;5021068;28;20053;-66
2022/03/03 07:14:40;;;;;;;49.33;27.65;;;;;;;11.07;76.01;101065.34;5014884;28;20050;-67
2022/03/03 07:17:28;;;;;;;45.28;28.25;;;;;;;11.15;76.36;101061.88;5020919;28;20500;-67
2022/03/03 07:20:07;;;;;;;51.15;28.40;;;;;;;11.23;75.53;101058.38;5011713;28;20076;-67
2022/03/03 07:22:44;;;;;;;64.00;33.78;;;;;;;11.26;76.27;101065.25;5014606;28;20077;-68
2022/03/03 07:25:13;;;;;;;47.45;27.15;;;;;;;11.74;75.06;101060.00;5014706;28;20490;-68
2022/03/03 07:27:42;;;;;;;49.75;27.70;;;;;;;11.94;74.14;101062.28;5015439;28;20046;-67
2022/03/03 07:30:13;;;;;;;44.90;26.63;;;;;;;11.73;73.00;101063.91;5026391;28;20535;-66
2022/03/03 07:32:51;;;;;;;48.72;26.63;;;;;;;11.35;74.14;101066.09;5017959;28;20054;-65
2022/03/03 07:35:20;;;;;;;51.65;28.88;;;;;;;11.05;75.74;101075.06;5008376;28;20054;-66
2022/03/03 07:37:58;;;;;;;51.07;29.03;;;;;;;11.05;76.05;101075.06;5029018;28;20369;-65
2022/03/03 07:40:30;;;;;;;58.00;28.63;;;;;;;11.10;76.28;101067.50;5021317;28;20057;-62
2022/03/03 07:42:58;;;;;;;48.75;29.23;;;;;;;11.04;76.71;101068.72;5012966;28;20068;-65
2022/03/03 07:45:27;;;;;;;49.45;28.70;;;;;;;11.03;76.53;101066.28;5014006;28;20054;-67
2022/03/03 07:47:55;;;;;;;44.97;27.67;;;;;;;11.30;76.02;101063.47;5018306;28;20045;-65
2022/03/03 07:50:24;;;;;;;48.97;29.35;;;;;;;11.13;76.18;101069.66;5017016;28;20053;-67
2022/03/03 07:52:52;;;;;;;44.28;28.13;;;;;;;11.41;75.76;101061.31;5021283;28;20046;-68
2022/03/03 07:55:21;;;;;;;47.30;27.73;;;;;;;11.30;75.78;101067.06;5016915;28;20470;-67
2022/03/03 07:58:02;;;;;;;52.50;29.48;;;;;;;11.18;76.03;101074.22;5013722;28;20044;-65
2022/03/03 08:00:32;;;;;;;49.63;28.05;;;;;;;11.13;76.41;101069.66;5023601;28;20069;-66
2022/03/03 08:03:02;;;;;;;48.50;28.17;;;;;;;11.27;76.12;101062.16;5016210;28;20056;-66
2022/03/03 08:05:29;;;;;;;49.10;28.73;;;;;;;11.56;74.87;101056.25;5013440;28;20046;-66
2022/03/03 08:07:58;;;;;;;57.53;33.47;;;;;;;11.76;74.12;101066.03;4998701;28;20050;-66
2022/03/03 08:10:27;;;;;;;54.75;28.50;;;;;;;11.72;74.09;101067.78;4986158;28;20097;-68
2022/03/03 08:12:57;;;;;;;49.90;28.33;;;;;;;11.74;73.80;101057.25;5009336;28;20646;-66
2022/03/03 08:15:27;;;;;;;48.90;27.13;;;;;;;11.88;74.08;101063.53;5016128;28;20054;-66
2022/03/03 08:17:54;;;;;;;52.78;28.30;;;;;;;11.94;72.75;101057.56;5015238;28;20041;-65
2022/03/03 08:20:22;;;;;;;51.95;29.23;;;;;;;11.75;73.51;101050.59;5012376;28;20045;-66
2022/03/03 08:22:50;;;;;;;52.00;29.33;;;;;;;11.81;73.79;101061.19;5010968;28;20045;-66
2022/03/03 08:25:18;;;;;;;40.97;26.40;;;;;;;11.64;74.59;101057.47;5022266;28;20077;-67
2022/03/03 08:27:45;;;;;;;43.58;28.13;;;;;;;11.57;75.22;101054.31;5016543;28;20577;-66
2022/03/03 08:30:13;;;;;;;47.50;28.63;;;;;;;12.13;73.18;101057.38;5015838;28;20058;-67
2022/03/03 08:33:03;;;;;;;49.85;29.13;;;;;;;11.82;73.83;101056.50;5015944;28;20073;-65
2022/03/03 08:35:36;;;;;;;49.60;27.60;;;;;;;11.76;74.33;101053.06;4984891;28;20066;-65
2022/03/03 08:38:17;;;;;;;50.55;29.58;;;;;;;11.62;75.31;101054.19;5014144;28;20057;-68
2022/03/03 08:40:45;;;;;;;48.65;27.40;;;;;;;11.91;74.59;101054.59;5013896;28;20608;-68
2022/03/03 08:43:14;;;;;;;50.22;27.50;;;;;;;12.17;73.09;101055.59;5008731;28;20405;-68
2022/03/03 08:45:42;;;;;;;50.05;28.15;;;;;;;12.16;72.78;101056.72;5013363;28;20069;-69
2022/03/03 08:48:12;;;;;;;45.03;28.00;;;;;;;11.76;74.71;101055.00;5015912;28;20046;-67
2022/03/03 08:50:41;;;;;;;48.50;28.67;;;;;;;11.82;74.91;101064.78;5014377;28;20065;-64
2022/03/03 08:53:09;;;;;;;45.42;28.70;;;;;;;11.91;74.77;101063.72;5015236;28;20046;-64
2022/03/03 08:55:38;;;;;;;47.40;28.20;;;;;;;12.29;73.11;101066.91;5016424;28;20057;-65
2022/03/03 08:58:06;;;;;;;51.40;27.88;;;;;;;12.40;72.58;101065.47;5011582;28;20049;-64
2022/03/03 09:00:34;;;;;;;44.53;27.75;;;;;;;12.39;72.60;101070.22;5014023;28;20057;-64
2022/03/03 09:03:02;;;;;;;47.80;27.05;;;;;;;12.36;72.03;101073.59;5016745;28;20053;-65
2022/03/03 09:05:30;;;;;;;53.97;29.25;;;;;;;12.39;71.91;101067.44;4998722;28;20061;-64
2022/03/03 09:07:57;;;;;;;53.10;28.27;;;;;;;12.23;72.76;101074.50;5019696;28;20049;-65
2022/03/03 09:10:25;;;;;;;55.30;29.00;;;;;;;12.31;72.53;101072.91;5028647;28;20046;-64
2022/03/03 09:12:53;;;;;;;51.70;27.92;;;;;;;12.33;72.31;101071.47;5018997;28;20061;-64
2022/03/03 09:15:20;;;;;;;50.28;28.92;;;;;;;12.27;72.60;101077.44;5014243;28;20401;-64
2022/03/03 09:17:48;;;;;;;46.35;28.88;;;;;;;12.17;72.80;101078.50;5008420;28;20397;-63
2022/03/03 09:20:15;;;;;;;51.55;29.33;;;;;;;12.25;73.12;101074.19;5016189;28;20861;-64
2022/03/03 09:22:44;;;;;;;52.38;28.90;;;;;;;12.36;72.45;101078.31;5011433;28;20061;-64
2022/03/03 09:25:12;;;;;;;55.13;28.10;;;;;;;12.46;72.44;101080.81;5009283;28;20053;-64
2022/03/03 09:27:40;;;;;;;59.58;27.80;;;;;;;12.42;72.46;101075.09;5010876;28;20054;-65
2022/03/03 09:30:09;;;;;;;47.88;28.58;;;;;;;12.40;72.83;101079.28;5016403;28;20058;-65
2022/03/03 09:32:36;;;;;;;48.42;28.13;;;;;;;12.39;72.82;101074.91;5021258;28;20046;-64
2022/03/03 09:35:04;;;;;;;56.17;30.20;;;;;;;12.38;72.82;101076.84;5014274;28;20551;-66
2022/03/03 09:37:32;;;;;;;47.80;28.33;;;;;;;12.52;72.36;101075.97;5010228;28;20050;-65
2022/03/03 09:39:59;;;;;;;52.83;27.88;;;;;;;12.50;72.54;101070.72;5012976;28;20041;-64
2022/03/03 09:42:34;;;;;;;48.70;28.70;;;;;;;12.78;71.75;101074.13;5014242;28;20046;-66
2022/03/03 09:45:03;;;;;;;49.47;28.70;;;;;;;12.80;71.47;101069.88;5012225;28;20049;-66
2022/03/03 09:47:32;;;;;;;58.97;31.17;;;;;;;12.95;71.37;101071.41;5009827;28;20050;-65
2022/03/03 09:50:00;;;;;;;52.67;30.13;;;;;;;13.01;70.95;101067.34;5009395;28;20069;-65
2022/03/03 09:52:28;;;;;;;50.97;29.75;;;;;;;13.01;70.99;101070.13;5016840;28;20058;-64
2022/03/03 09:54:57;;;;;;;59.17;31.55;;;;;;;13.02;70.88;101072.59;5014534;28;20504;-64
2022/03/03 09:57:24;;;;;;;50.08;30.92;;;;;;;12.92;70.80;101070.09;5011061;28;20428;-64
2022/03/03 09:59:52;;;;;;;56.28;32.28;;;;;;;12.83;70.94;101073.97;5010319;28;20046;-65
2022/03/03 10:02:19;;;;;;;54.28;32.00;;;;;;;12.94;71.13;101075.28;5014451;28;20050;-66
2022/03/03 10:04:47;;;;;;;56.80;30.70;;;;;;;12.98;70.98;101076.28;5015188;28;20057;-64
2022/03/03 10:07:14;;;;;;;53.85;30.25;;;;;;;12.94;71.19;101073.34;5017117;28;20061;-65
2022/03/03 10:10:00;;;;;;;53.05;29.95;;;;;;;13.17;70.50;101079.63;5015271;28;20061;-64
2022/03/03 10:12:43;;;;;;;53.53;30.17;;;;;;;13.42;69.64;101071.38;5015795;28;20050;-66
2022/03/03 10:15:14;;;;;;;53.83;29.77;;;;;;;13.36;68.99;101069.09;5014479;28;20061;-67
2022/03/03 10:17:42;;;;;;;53.15;29.27;;;;;;;13.38;68.84;101067.66;5014106;28;20385;-64
2022/03/03 10:20:10;;;;;;;46.67;28.73;;;;;;;13.41;68.98;101058.69;5012026;28;20057;-64
2022/03/03 10:22:57;;;;;;;55.00;27.70;;;;;;;13.41;68.73;101058.69;5025059;28;20049;-64
2022/03/03 10:25:35;;;;;;;41.95;27.38;;;;;;;13.19;69.06;101064.34;5010076;28;20053;-64
2022/03/03 10:28:24;;;;;;;46.92;27.38;;;;;;;13.03;70.00;101063.16;5010831;28;20045;-64
2022/03/03 10:31:00;;;;;;;53.65;29.20;;;;;;;13.04;69.85;101069.53;4990300;28;20049;-64
2022/03/03 10:33:33;;;;;;;47.08;28.80;;;;;;;13.11;69.64;101070.66;5012992;28;20065;-64
2022/03/03 10:36:15;;;;;;;46.15;27.83;;;;;;;13.47;68.44;101054.63;5021497;28;20382;-66
2022/03/03 10:38:51;;;;;;;43.08;27.58;;;;;;;13.39;67.78;101054.59;5010954;28;20069;-65
2022/03/03 10:41:41;;;;;;;47.47;29.02;;;;;;;13.32;68.48;101055.09;5002646;28;20053;-66
2022/03/03 10:44:11;;;;;;;43.97;25.75;;;;;;;13.63;68.19;101056.91;5014407;28;20049;-65
2022/03/03 10:46:59;;;;;;;48.92;28.13;;;;;;;13.56;67.84;101058.19;5021492;28;20432;-65
2022/03/03 10:49:27;;;;;;;45.38;27.27;;;;;;;13.68;68.00;101051.22;5012820;28;20058;-64
2022/03/03 10:52:09;;;;;;;43.92;26.83;;;;;;;13.98;66.70;101048.25;5005734;28;20072;-64
2022/03/03 10:54:51;;;;;;;43.60;26.13;;;;;;;13.96;66.31;101047.78;5005831;28;20058;-64
2022/03/03 10:57:38;;;;;;;46.25;27.38;;;;;;;14.03;66.11;101048.09;5013424;28;20603;-66
2022/03/03 11:00:16;;;;;;;48.08;26.75;;;;;;;13.96;66.23;101045.00;5011021;28;20046;-66
2022/03/03 11:02:49;;;;;;;47.65;27.35;;;;;;;13.86;66.01;101044.53;5011716;28;20060;-65
2022/03/03 11:05:18;;;;;;;46.97;26.05;;;;;;;13.82;66.53;101038.00;5016062;28;20045;-65
2022/03/03 11:07:48;;;;;;;40.88;24.98;;;;;;;13.80;66.19;101051.38;5012266;28;20063;-66
2022/03/03 11:10:17;;;;;;;60.15;26.77;;;;;;;13.84;66.35;101044.88;5008651;28;20053;-66
2022/03/03 11:12:45;;;;;;;43.70;25.33;;;;;;;13.98;65.97;101048.25;5019474;28;20057;-67
2022/03/03 11:15:14;;;;;;;46.50;26.13;;;;;;;14.14;65.54;101048.56;5017278;28;20056;-67
2022/03/03 11:17:42;;;;;;;48.65;25.88;;;;;;;14.15;65.65;101042.69;5015759;28;20053;-64